sensor_id;sensor_type;location;lat;lon;timestamp;P1;durP1;ratioP1;P2;durP2;ratioP2
20383;SDS011;46458;50.966;7.002;2023-04-24T00:02:00;1.17;;;0.80;;
20383;SDS011;46458;50.966;7.002;2023-04-24T00:04:32;1.00;;;0.83;;
20383;SDS011;46458;50.966;7.002;2023-04-24T00:07:01;1.10;;;1.00;;
20383;SDS011;46458;50.966;7.002;2023-04-24T00:09:32;1.23;;;0.93;;
20383;SDS011;46458;50.966;7.002;2023-04-24T00:12:00;2.63;;;1.03;;
20383;SDS011;46458;50.966;7.002;2023-04-24T00:14:30;1.53;;;1.00;;
20383;SDS011;46458;50.966;7.002;2023-04-24T00:17:02;1.17;;;0.97;;
20383;SDS011;46458;50.966;7.002;2023-04-24T00:19:31;1.27;;;1.00;;
20383;SDS011;46458;50.966;7.002;2023-04-24T00:22:00;1.00;;;0.83;;
20383;SDS011;46458;50.966;7.002;2023-04-24T00:24:31;1.10;;;0.90;;
20383;SDS011;46458;50.966;7.002;2023-04-24T00:27:00;1.17;;;1.00;;
20383;SDS011;46458;50.966;7.002;2023-04-24T00:29:29;1.97;;;1.03;;
20383;SDS011;46458;50.966;7.002;2023-04-24T00:31:58;1.10;;;0.87;;
20383;SDS011;46458;50.966;7.002;2023-04-24T00:34:29;3.80;;;0.90;;
20383;SDS011;46458;50.966;7.002;2023-04-24T00:36:58;1.17;;;1.07;;
20383;SDS011;46458;50.966;7.002;2023-04-24T00:39:27;1.43;;;1.20;;
20383;SDS011;46458;50.966;7.002;2023-04-24T00:41:56;1.23;;;0.90;;
20383;SDS011;46458;50.966;7.002;2023-04-24T00:44:26;1.57;;;0.90;;
20383;SDS011;46458;50.966;7.002;2023-04-24T00:46:56;1.27;;;0.90;;
20383;SDS011;46458;50.966;7.002;2023-04-24T00:49:28;1.87;;;0.93;;
20383;SDS011;46458;50.966;7.002;2023-04-24T00:51:57;1.27;;;1.07;;
20383;SDS011;46458;50.966;7.002;2023-04-24T00:54:26;1.30;;;1.00;;
20383;SDS011;46458;50.966;7.002;2023-04-24T00:56:56;1.13;;;1.03;;
20383;SDS011;46458;50.966;7.002;2023-04-24T00:59:26;1.10;;;1.00;;
20383;SDS011;46458;50.966;7.002;2023-04-24T01:01:55;1.50;;;1.00;;
20383;SDS011;46458;50.966;7.002;2023-04-24T01:04:33;1.27;;;1.17;;
20383;SDS011;46458;50.966;7.002;2023-04-24T01:07:04;1.93;;;1.30;;
20383;SDS011;46458;50.966;7.002;2023-04-24T01:09:35;3.33;;;1.27;;
20383;SDS011;46458;50.966;7.002;2023-04-24T01:12:05;1.20;;;1.03;;
20383;SDS011;46458;50.966;7.002;2023-04-24T01:14:36;1.90;;;1.40;;
20383;SDS011;46458;50.966;7.002;2023-04-24T01:17:08;2.23;;;1.20;;
20383;SDS011;46458;50.966;7.002;2023-04-24T01:19:40;2.83;;;1.40;;
20383;SDS011;46458;50.966;7.002;2023-04-24T01:22:13;1.40;;;1.23;;
20383;SDS011;46458;50.966;7.002;2023-04-24T01:24:45;1.80;;;1.20;;
20383;SDS011;46458;50.966;7.002;2023-04-24T01:27:14;2.23;;;1.30;;
20383;SDS011;46458;50.966;7.002;2023-04-24T01:29:44;1.57;;;1.40;;
20383;SDS011;46458;50.966;7.002;2023-04-24T01:32:14;1.60;;;1.20;;
20383;SDS011;46458;50.966;7.002;2023-04-24T01:34:46;1.90;;;1.30;;
20383;SDS011;46458;50.966;7.002;2023-04-24T01:37:18;1.60;;;1.10;;
20383;SDS011;46458;50.966;7.002;2023-04-24T01:39:48;1.50;;;1.40;;
20383;SDS011;46458;50.966;7.002;2023-04-24T01:42:17;2.67;;;2.30;;
20383;SDS011;46458;50.966;7.002;2023-04-24T01:44:49;2.63;;;2.43;;
20383;SDS011;46458;50.966;7.002;2023-04-24T01:47:19;3.80;;;2.30;;
20383;SDS011;46458;50.966;7.002;2023-04-24T01:49:50;2.70;;;2.37;;
20383;SDS011;46458;50.966;7.002;2023-04-24T01:52:21;3.57;;;2.60;;
20383;SDS011;46458;50.966;7.002;2023-04-24T01:54:50;4.60;;;3.20;;
20383;SDS011;46458;50.966;7.002;2023-04-24T01:57:21;4.83;;;3.10;;
20383;SDS011;46458;50.966;7.002;2023-04-24T01:59:51;5.43;;;3.60;;
20383;SDS011;46458;50.966;7.002;2023-04-24T02:02:20;3.57;;;3.27;;
20383;SDS011;46458;50.966;7.002;2023-04-24T02:04:49;3.53;;;3.23;;
20383;SDS011;46458;50.966;7.002;2023-04-24T02:07:23;4.10;;;3.23;;
20383;SDS011;46458;50.966;7.002;2023-04-24T02:09:52;4.97;;;3.37;;
20383;SDS011;46458;50.966;7.002;2023-04-24T02:12:21;4.83;;;3.47;;
20383;SDS011;46458;50.966;7.002;2023-04-24T02:14:50;5.10;;;3.07;;
20383;SDS011;46458;50.966;7.002;2023-04-24T02:17:19;3.60;;;3.27;;
20383;SDS011;46458;50.966;7.002;2023-04-24T02:19:51;4.07;;;3.43;;
20383;SDS011;46458;50.966;7.002;2023-04-24T02:22:20;5.47;;;3.90;;
20383;SDS011;46458;50.966;7.002;2023-04-24T02:24:51;4.70;;;2.93;;
20383;SDS011;46458;50.966;7.002;2023-04-24T02:27:20;4.47;;;3.60;;
20383;SDS011;46458;50.966;7.002;2023-04-24T02:29:49;4.87;;;3.77;;
20383;SDS011;46458;50.966;7.002;2023-04-24T02:32:18;6.37;;;4.00;;
20383;SDS011;46458;50.966;7.002;2023-04-24T02:34:46;4.93;;;4.10;;
20383;SDS011;46458;50.966;7.002;2023-04-24T02:37:15;5.50;;;3.93;;
20383;SDS011;46458;50.966;7.002;2023-04-24T02:39:44;4.90;;;3.90;;
20383;SDS011;46458;50.966;7.002;2023-04-24T02:42:16;4.33;;;3.37;;
20383;SDS011;46458;50.966;7.002;2023-04-24T02:44:44;6.07;;;4.10;;
20383;SDS011;46458;50.966;7.002;2023-04-24T02:47:16;4.97;;;4.47;;
20383;SDS011;46458;50.966;7.002;2023-04-24T02:49:45;5.53;;;4.23;;
20383;SDS011;46458;50.966;7.002;2023-04-24T02:52:15;6.10;;;4.33;;
20383;SDS011;46458;50.966;7.002;2023-04-24T02:54:46;4.73;;;4.20;;
20383;SDS011;46458;50.966;7.002;2023-04-24T02:57:18;6.20;;;4.27;;
20383;SDS011;46458;50.966;7.002;2023-04-24T02:59:47;6.70;;;4.57;;
20383;SDS011;46458;50.966;7.002;2023-04-24T03:02:16;6.83;;;4.60;;
20383;SDS011;46458;50.966;7.002;2023-04-24T03:04:45;7.77;;;4.77;;
20383;SDS011;46458;50.966;7.002;2023-04-24T03:07:14;6.67;;;4.43;;
20383;SDS011;46458;50.966;7.002;2023-04-24T03:09:46;7.27;;;5.30;;
20383;SDS011;46458;50.966;7.002;2023-04-24T03:12:18;7.43;;;5.27;;
20383;SDS011;46458;50.966;7.002;2023-04-24T03:14:50;7.33;;;5.53;;
20383;SDS011;46458;50.966;7.002;2023-04-24T03:17:19;6.30;;;5.67;;
20383;SDS011;46458;50.966;7.002;2023-04-24T03:19:50;9.03;;;5.90;;
20383;SDS011;46458;50.966;7.002;2023-04-24T03:22:19;9.57;;;6.37;;
20383;SDS011;46458;50.966;7.002;2023-04-24T03:24:48;7.90;;;5.50;;
20383;SDS011;46458;50.966;7.002;2023-04-24T03:27:23;10.20;;;6.33;;
20383;SDS011;46458;50.966;7.002;2023-04-24T03:29:59;7.67;;;5.50;;
20383;SDS011;46458;50.966;7.002;2023-04-24T03:32:40;8.03;;;5.57;;
20383;SDS011;46458;50.966;7.002;2023-04-24T03:35:12;8.20;;;5.37;;
20383;SDS011;46458;50.966;7.002;2023-04-24T03:37:48;6.67;;;5.70;;
20383;SDS011;46458;50.966;7.002;2023-04-24T03:40:35;8.43;;;5.80;;
20383;SDS011;46458;50.966;7.002;2023-04-24T03:43:16;7.03;;;5.87;;
20383;SDS011;46458;50.966;7.002;2023-04-24T03:45:48;8.00;;;5.80;;
20383;SDS011;46458;50.966;7.002;2023-04-24T03:48:18;7.80;;;5.80;;
20383;SDS011;46458;50.966;7.002;2023-04-24T03:50:47;6.80;;;5.03;;
20383;SDS011;46458;50.966;7.002;2023-04-24T03:53:16;8.33;;;5.87;;
20383;SDS011;46458;50.966;7.002;2023-04-24T03:55:45;7.50;;;5.83;;
20383;SDS011;46458;50.966;7.002;2023-04-24T03:58:17;7.67;;;6.00;;
20383;SDS011;46458;50.966;7.002;2023-04-24T04:00:47;6.70;;;5.90;;
20383;SDS011;46458;50.966;7.002;2023-04-24T04:03:37;7.63;;;6.07;;
20383;SDS011;46458;50.966;7.002;2023-04-24T04:06:06;9.73;;;6.13;;
20383;SDS011;46458;50.966;7.002;2023-04-24T04:08:38;7.93;;;5.47;;
20383;SDS011;46458;50.966;7.002;2023-04-24T04:11:10;7.30;;;5.80;;
20383;SDS011;46458;50.966;7.002;2023-04-24T04:13:42;6.97;;;5.13;;
20383;SDS011;46458;50.966;7.002;2023-04-24T04:16:13;8.70;;;5.80;;
20383;SDS011;46458;50.966;7.002;2023-04-24T04:18:42;8.50;;;5.63;;
20383;SDS011;46458;50.966;7.002;2023-04-24T04:21:11;6.87;;;5.00;;
20383;SDS011;46458;50.966;7.002;2023-04-24T04:23:40;5.33;;;4.57;;
20383;SDS011;46458;50.966;7.002;2023-04-24T04:26:17;5.73;;;5.07;;
20383;SDS011;46458;50.966;7.002;2023-04-24T04:29:05;6.20;;;4.80;;
20383;SDS011;46458;50.966;7.002;2023-04-24T04:31:38;6.67;;;4.57;;
20383;SDS011;46458;50.966;7.002;2023-04-24T04:34:10;9.43;;;4.93;;
20383;SDS011;46458;50.966;7.002;2023-04-24T04:36:40;7.63;;;5.40;;
20383;SDS011;46458;50.966;7.002;2023-04-24T04:39:27;8.80;;;4.93;;
20383;SDS011;46458;50.966;7.002;2023-04-24T04:42:02;5.37;;;4.40;;
20383;SDS011;46458;50.966;7.002;2023-04-24T04:44:40;8.30;;;5.00;;
20383;SDS011;46458;50.966;7.002;2023-04-24T04:47:15;5.53;;;4.63;;
20383;SDS011;46458;50.966;7.002;2023-04-24T04:49:44;7.23;;;5.10;;
20383;SDS011;46458;50.966;7.002;2023-04-24T04:52:20;6.77;;;4.90;;
20383;SDS011;46458;50.966;7.002;2023-04-24T04:55:02;5.40;;;4.30;;
20383;SDS011;46458;50.966;7.002;2023-04-24T04:57:51;7.00;;;4.87;;
20383;SDS011;46458;50.966;7.002;2023-04-24T05:00:24;6.33;;;4.43;;
20383;SDS011;46458;50.966;7.002;2023-04-24T05:02:54;6.97;;;4.73;;
20383;SDS011;46458;50.966;7.002;2023-04-24T05:05:23;5.90;;;4.83;;
20383;SDS011;46458;50.966;7.002;2023-04-24T05:07:52;7.03;;;4.30;;
20383;SDS011;46458;50.966;7.002;2023-04-24T05:10:23;7.47;;;4.47;;
20383;SDS011;46458;50.966;7.002;2023-04-24T05:12:54;7.90;;;4.93;;
20383;SDS011;46458;50.966;7.002;2023-04-24T05:15:26;6.43;;;4.20;;
20383;SDS011;46458;50.966;7.002;2023-04-24T05:17:56;5.57;;;4.70;;
20383;SDS011;46458;50.966;7.002;2023-04-24T05:20:25;6.63;;;5.00;;
20383;SDS011;46458;50.966;7.002;2023-04-24T05:22:54;6.47;;;4.77;;
20383;SDS011;46458;50.966;7.002;2023-04-24T05:25:24;5.43;;;4.83;;
20383;SDS011;46458;50.966;7.002;2023-04-24T05:28:03;5.97;;;4.87;;
20383;SDS011;46458;50.966;7.002;2023-04-24T05:30:35;7.57;;;5.10;;
20383;SDS011;46458;50.966;7.002;2023-04-24T05:33:05;8.03;;;5.10;;
20383;SDS011;46458;50.966;7.002;2023-04-24T05:35:34;6.30;;;4.70;;
20383;SDS011;46458;50.966;7.002;2023-04-24T05:38:03;6.43;;;4.50;;
20383;SDS011;46458;50.966;7.002;2023-04-24T05:40:32;7.67;;;5.37;;
20383;SDS011;46458;50.966;7.002;2023-04-24T05:43:04;6.33;;;4.90;;
20383;SDS011;46458;50.966;7.002;2023-04-24T05:45:37;7.63;;;5.00;;
20383;SDS011;46458;50.966;7.002;2023-04-24T05:48:06;5.43;;;4.77;;
20383;SDS011;46458;50.966;7.002;2023-04-24T05:50:38;6.30;;;4.93;;
20383;SDS011;46458;50.966;7.002;2023-04-24T05:53:08;6.77;;;5.30;;
20383;SDS011;46458;50.966;7.002;2023-04-24T05:55:37;6.57;;;5.33;;
20383;SDS011;46458;50.966;7.002;2023-04-24T05:58:07;7.27;;;4.97;;
20383;SDS011;46458;50.966;7.002;2023-04-24T06:00:40;6.03;;;5.17;;
20383;SDS011;46458;50.966;7.002;2023-04-24T06:03:11;9.07;;;6.17;;
20383;SDS011;46458;50.966;7.002;2023-04-24T06:05:40;6.27;;;5.23;;
20383;SDS011;46458;50.966;7.002;2023-04-24T06:08:10;6.13;;;4.87;;
20383;SDS011;46458;50.966;7.002;2023-04-24T06:10:41;8.50;;;5.97;;
20383;SDS011;46458;50.966;7.002;2023-04-24T06:13:11;8.20;;;5.50;;
20383;SDS011;46458;50.966;7.002;2023-04-24T06:15:49;6.87;;;5.27;;
20383;SDS011;46458;50.966;7.002;2023-04-24T06:18:27;7.27;;;5.33;;
20383;SDS011;46458;50.966;7.002;2023-04-24T06:20:56;7.07;;;5.30;;
20383;SDS011;46458;50.966;7.002;2023-04-24T06:23:25;6.90;;;5.47;;
20383;SDS011;46458;50.966;7.002;2023-04-24T06:25:54;6.13;;;5.50;;
20383;SDS011;46458;50.966;7.002;2023-04-24T06:28:23;8.60;;;5.77;;
20383;SDS011;46458;50.966;7.002;2023-04-24T06:30:55;7.70;;;5.10;;
20383;SDS011;46458;50.966;7.002;2023-04-24T06:33:24;6.20;;;4.30;;
20383;SDS011;46458;50.966;7.002;2023-04-24T06:35:52;5.37;;;4.00;;
20383;SDS011;46458;50.966;7.002;2023-04-24T06:38:21;6.03;;;4.20;;
20383;SDS011;46458;50.966;7.002;2023-04-24T06:40:50;5.30;;;4.13;;
20383;SDS011;46458;50.966;7.002;2023-04-24T06:43:19;5.60;;;3.23;;
20383;SDS011;46458;50.966;7.002;2023-04-24T06:45:48;3.20;;;2.90;;
20383;SDS011;46458;50.966;7.002;2023-04-24T06:48:19;5.23;;;2.40;;
20383;SDS011;46458;50.966;7.002;2023-04-24T06:50:50;2.83;;;2.10;;
20383;SDS011;46458;50.966;7.002;2023-04-24T06:53:22;2.73;;;2.20;;
20383;SDS011;46458;50.966;7.002;2023-04-24T06:55:51;2.60;;;1.87;;
20383;SDS011;46458;50.966;7.002;2023-04-24T06:58:20;4.17;;;2.53;;
20383;SDS011;46458;50.966;7.002;2023-04-24T07:00:49;4.33;;;2.30;;
20383;SDS011;46458;50.966;7.002;2023-04-24T07:03:23;3.33;;;1.97;;
20383;SDS011;46458;50.966;7.002;2023-04-24T07:05:54;2.40;;;1.73;;
20383;SDS011;46458;50.966;7.002;2023-04-24T07:08:23;3.90;;;2.00;;
20383;SDS011;46458;50.966;7.002;2023-04-24T07:10:52;2.67;;;1.83;;
20383;SDS011;46458;50.966;7.002;2023-04-24T07:13:22;2.60;;;1.70;;
20383;SDS011;46458;50.966;7.002;2023-04-24T07:15:51;2.40;;;2.03;;
20383;SDS011;46458;50.966;7.002;2023-04-24T07:18:24;3.07;;;2.10;;
20383;SDS011;46458;50.966;7.002;2023-04-24T07:20:53;3.13;;;2.17;;
20383;SDS011;46458;50.966;7.002;2023-04-24T07:23:22;3.07;;;2.37;;
20383;SDS011;46458;50.966;7.002;2023-04-24T07:25:51;3.97;;;2.33;;
20383;SDS011;46458;50.966;7.002;2023-04-24T07:28:20;3.00;;;2.30;;
20383;SDS011;46458;50.966;7.002;2023-04-24T07:30:48;2.47;;;1.80;;
20383;SDS011;46458;50.966;7.002;2023-04-24T07:33:19;3.83;;;2.30;;
20383;SDS011;46458;50.966;7.002;2023-04-24T07:35:50;3.07;;;2.00;;
20383;SDS011;46458;50.966;7.002;2023-04-24T07:38:19;2.80;;;2.10;;
20383;SDS011;46458;50.966;7.002;2023-04-24T07:40:51;2.70;;;1.70;;
20383;SDS011;46458;50.966;7.002;2023-04-24T07:43:20;2.70;;;1.40;;
20383;SDS011;46458;50.966;7.002;2023-04-24T07:45:49;1.70;;;1.20;;
20383;SDS011;46458;50.966;7.002;2023-04-24T07:48:18;1.73;;;1.50;;
20383;SDS011;46458;50.966;7.002;2023-04-24T07:50:50;1.57;;;1.20;;
20383;SDS011;46458;50.966;7.002;2023-04-24T07:53:19;2.40;;;1.10;;
20383;SDS011;46458;50.966;7.002;2023-04-24T07:55:48;1.90;;;1.30;;
20383;SDS011;46458;50.966;7.002;2023-04-24T07:58:16;1.47;;;1.20;;
20383;SDS011;46458;50.966;7.002;2023-04-24T08:00:45;1.93;;;1.20;;
20383;SDS011;46458;50.966;7.002;2023-04-24T08:03:14;2.43;;;1.27;;
20383;SDS011;46458;50.966;7.002;2023-04-24T08:05:45;1.43;;;1.30;;
20383;SDS011;46458;50.966;7.002;2023-04-24T08:08:16;1.70;;;1.07;;
20383;SDS011;46458;50.966;7.002;2023-04-24T08:10:46;3.03;;;1.40;;
20383;SDS011;46458;50.966;7.002;2023-04-24T08:13:15;3.27;;;1.03;;
20383;SDS011;46458;50.966;7.002;2023-04-24T08:15:44;1.03;;;0.93;;
20383;SDS011;46458;50.966;7.002;2023-04-24T08:18:15;2.07;;;1.30;;
20383;SDS011;46458;50.966;7.002;2023-04-24T08:20:44;1.83;;;1.20;;
20383;SDS011;46458;50.966;7.002;2023-04-24T08:23:13;2.43;;;1.40;;
20383;SDS011;46458;50.966;7.002;2023-04-24T08:25:45;1.77;;;1.30;;
20383;SDS011;46458;50.966;7.002;2023-04-24T08:28:14;2.33;;;1.40;;
20383;SDS011;46458;50.966;7.002;2023-04-24T08:30:45;1.40;;;1.17;;
20383;SDS011;46458;50.966;7.002;2023-04-24T08:33:19;1.30;;;1.20;;
20383;SDS011;46458;50.966;7.002;2023-04-24T08:35:48;1.33;;;1.23;;
20383;SDS011;46458;50.966;7.002;2023-04-24T08:38:19;2.03;;;1.40;;
20383;SDS011;46458;50.966;7.002;2023-04-24T08:40:48;1.20;;;1.10;;
20383;SDS011;46458;50.966;7.002;2023-04-24T08:43:17;1.30;;;1.10;;
20383;SDS011;46458;50.966;7.002;2023-04-24T08:45:48;1.23;;;1.13;;
20383;SDS011;46458;50.966;7.002;2023-04-24T08:48:17;2.03;;;1.33;;
20383;SDS011;46458;50.966;7.002;2023-04-24T08:50:47;2.63;;;1.40;;
20383;SDS011;46458;50.966;7.002;2023-04-24T08:53:27;2.43;;;1.77;;
20383;SDS011;46458;50.966;7.002;2023-04-24T08:55:57;1.80;;;1.20;;
20383;SDS011;46458;50.966;7.002;2023-04-24T08:58:26;2.80;;;2.13;;
20383;SDS011;46458;50.966;7.002;2023-04-24T09:00:55;3.10;;;1.90;;
20383;SDS011;46458;50.966;7.002;2023-04-24T09:03:28;2.33;;;1.87;;
20383;SDS011;46458;50.966;7.002;2023-04-24T09:05:58;2.63;;;1.93;;
20383;SDS011;46458;50.966;7.002;2023-04-24T09:08:30;2.77;;;2.30;;
20383;SDS011;46458;50.966;7.002;2023-04-24T09:11:00;2.50;;;2.17;;
20383;SDS011;46458;50.966;7.002;2023-04-24T09:13:32;2.67;;;2.27;;
20383;SDS011;46458;50.966;7.002;2023-04-24T09:16:05;4.33;;;2.73;;
20383;SDS011;46458;50.966;7.002;2023-04-24T09:18:34;5.17;;;3.13;;
20383;SDS011;46458;50.966;7.002;2023-04-24T09:21:03;4.67;;;3.20;;
20383;SDS011;46458;50.966;7.002;2023-04-24T09:23:37;4.07;;;3.27;;
20383;SDS011;46458;50.966;7.002;2023-04-24T09:26:07;6.03;;;3.50;;
20383;SDS011;46458;50.966;7.002;2023-04-24T09:28:39;5.30;;;4.00;;
20383;SDS011;46458;50.966;7.002;2023-04-24T09:31:11;4.43;;;3.50;;
20383;SDS011;46458;50.966;7.002;2023-04-24T09:33:49;4.37;;;3.67;;
20383;SDS011;46458;50.966;7.002;2023-04-24T09:36:28;7.40;;;3.90;;
20383;SDS011;46458;50.966;7.002;2023-04-24T09:39:05;6.23;;;4.53;;
20383;SDS011;46458;50.966;7.002;2023-04-24T09:41:43;6.07;;;4.50;;
20383;SDS011;46458;50.966;7.002;2023-04-24T09:44:13;5.13;;;4.40;;
20383;SDS011;46458;50.966;7.002;2023-04-24T09:46:44;6.40;;;5.23;;
20383;SDS011;46458;50.966;7.002;2023-04-24T09:49:21;9.27;;;5.07;;
20383;SDS011;46458;50.966;7.002;2023-04-24T09:52:02;5.97;;;5.17;;
20383;SDS011;46458;50.966;7.002;2023-04-24T09:54:35;6.77;;;5.10;;
20383;SDS011;46458;50.966;7.002;2023-04-24T09:57:04;8.13;;;5.40;;
20383;SDS011;46458;50.966;7.002;2023-04-24T09:59:35;9.20;;;5.87;;
20383;SDS011;46458;50.966;7.002;2023-04-24T10:02:16;8.67;;;5.50;;
20383;SDS011;46458;50.966;7.002;2023-04-24T10:04:53;8.73;;;5.97;;
20383;SDS011;46458;50.966;7.002;2023-04-24T10:07:25;8.53;;;6.50;;
20383;SDS011;46458;50.966;7.002;2023-04-24T10:10:04;7.57;;;6.00;;
20383;SDS011;46458;50.966;7.002;2023-04-24T10:12:34;7.73;;;6.07;;
20383;SDS011;46458;50.966;7.002;2023-04-24T10:15:04;8.43;;;6.17;;
20383;SDS011;46458;50.966;7.002;2023-04-24T10:17:34;7.10;;;5.37;;
20383;SDS011;46458;50.966;7.002;2023-04-24T10:20:05;8.93;;;5.93;;
20383;SDS011;46458;50.966;7.002;2023-04-24T10:22:36;8.80;;;5.23;;
20383;SDS011;46458;50.966;7.002;2023-04-24T10:25:08;7.43;;;4.90;;
20383;SDS011;46458;50.966;7.002;2023-04-24T10:27:42;7.53;;;5.17;;
20383;SDS011;46458;50.966;7.002;2023-04-24T10:30:12;9.13;;;5.37;;
20383;SDS011;46458;50.966;7.002;2023-04-24T10:32:42;6.97;;;4.70;;
20383;SDS011;46458;50.966;7.002;2023-04-24T10:35:11;6.67;;;4.67;;
20383;SDS011;46458;50.966;7.002;2023-04-24T10:37:45;6.57;;;4.83;;
20383;SDS011;46458;50.966;7.002;2023-04-24T10:40:24;9.23;;;4.67;;
20383;SDS011;46458;50.966;7.002;2023-04-24T10:42:54;7.03;;;4.03;;
20383;SDS011;46458;50.966;7.002;2023-04-24T10:45:24;10.10;;;4.10;;
20383;SDS011;46458;50.966;7.002;2023-04-24T10:47:56;9.17;;;4.40;;
20383;SDS011;46458;50.966;7.002;2023-04-24T10:50:30;6.70;;;4.13;;
20383;SDS011;46458;50.966;7.002;2023-04-24T10:53:15;7.73;;;3.77;;
20383;SDS011;46458;50.966;7.002;2023-04-24T10:55:52;5.63;;;3.37;;
20383;SDS011;46458;50.966;7.002;2023-04-24T10:58:35;8.63;;;4.00;;
20383;SDS011;46458;50.966;7.002;2023-04-24T11:01:06;6.33;;;3.73;;
20383;SDS011;46458;50.966;7.002;2023-04-24T11:03:35;7.87;;;3.83;;
20383;SDS011;46458;50.966;7.002;2023-04-24T11:06:07;9.33;;;4.37;;
20383;SDS011;46458;50.966;7.002;2023-04-24T11:08:37;8.33;;;3.70;;
20383;SDS011;46458;50.966;7.002;2023-04-24T11:11:16;6.70;;;3.80;;
20383;SDS011;46458;50.966;7.002;2023-04-24T11:16:35;4.13;;;2.47;;
20383;SDS011;46458;50.966;7.002;2023-04-24T11:19:23;5.13;;;2.60;;
20383;SDS011;46458;50.966;7.002;2023-04-24T11:21:54;10.03;;;2.80;;
20383;SDS011;46458;50.966;7.002;2023-04-24T11:24:30;6.37;;;3.17;;
20383;SDS011;46458;50.966;7.002;2023-04-24T11:27:12;5.23;;;2.57;;
20383;SDS011;46458;50.966;7.002;2023-04-24T11:29:44;7.07;;;3.33;;
20383;SDS011;46458;50.966;7.002;2023-04-24T11:32:22;6.07;;;2.90;;
20383;SDS011;46458;50.966;7.002;2023-04-24T11:34:54;6.70;;;3.27;;
20383;SDS011;46458;50.966;7.002;2023-04-24T11:37:26;7.33;;;3.23;;
20383;SDS011;46458;50.966;7.002;2023-04-24T11:39:56;6.83;;;3.67;;
20383;SDS011;46458;50.966;7.002;2023-04-24T11:42:29;14.30;;;6.83;;
20383;SDS011;46458;50.966;7.002;2023-04-24T11:45:07;6.53;;;3.50;;
20383;SDS011;46458;50.966;7.002;2023-04-24T11:47:40;7.73;;;4.00;;
20383;SDS011;46458;50.966;7.002;2023-04-24T11:50:11;9.70;;;5.23;;
20383;SDS011;46458;50.966;7.002;2023-04-24T11:52:41;12.57;;;4.70;;
20383;SDS011;46458;50.966;7.002;2023-04-24T11:55:22;9.27;;;4.27;;
20383;SDS011;46458;50.966;7.002;2023-04-24T11:57:55;9.60;;;4.03;;
20383;SDS011;46458;50.966;7.002;2023-04-24T12:00:26;7.53;;;4.73;;
20383;SDS011;46458;50.966;7.002;2023-04-24T12:03:03;10.27;;;4.70;;
20383;SDS011;46458;50.966;7.002;2023-04-24T12:05:34;9.87;;;5.10;;
20383;SDS011;46458;50.966;7.002;2023-04-24T12:08:03;10.77;;;5.87;;
20383;SDS011;46458;50.966;7.002;2023-04-24T12:10:32;10.27;;;5.70;;
20383;SDS011;46458;50.966;7.002;2023-04-24T12:13:04;12.30;;;5.33;;
20383;SDS011;46458;50.966;7.002;2023-04-24T12:15:33;9.70;;;5.40;;
20383;SDS011;46458;50.966;7.002;2023-04-24T12:18:03;9.77;;;5.03;;
20383;SDS011;46458;50.966;7.002;2023-04-24T12:20:32;11.83;;;5.77;;
20383;SDS011;46458;50.966;7.002;2023-04-24T12:23:01;9.43;;;4.60;;
20383;SDS011;46458;50.966;7.002;2023-04-24T12:25:30;9.10;;;4.80;;
20383;SDS011;46458;50.966;7.002;2023-04-24T12:28:11;7.10;;;4.90;;
20383;SDS011;46458;50.966;7.002;2023-04-24T12:30:41;10.43;;;5.47;;
20383;SDS011;46458;50.966;7.002;2023-04-24T12:33:11;8.80;;;4.80;;
20383;SDS011;46458;50.966;7.002;2023-04-24T12:35:40;12.20;;;5.03;;
20383;SDS011;46458;50.966;7.002;2023-04-24T12:38:09;9.03;;;5.30;;
20383;SDS011;46458;50.966;7.002;2023-04-24T12:40:42;9.13;;;5.27;;
20383;SDS011;46458;50.966;7.002;2023-04-24T12:43:15;5.80;;;4.27;;
20383;SDS011;46458;50.966;7.002;2023-04-24T12:45:45;8.20;;;4.13;;
20383;SDS011;46458;50.966;7.002;2023-04-24T12:48:15;7.40;;;4.40;;
20383;SDS011;46458;50.966;7.002;2023-04-24T12:50:45;11.50;;;4.50;;
20383;SDS011;46458;50.966;7.002;2023-04-24T12:53:20;10.23;;;4.53;;
20383;SDS011;46458;50.966;7.002;2023-04-24T12:55:51;9.57;;;4.37;;
20383;SDS011;46458;50.966;7.002;2023-04-24T12:58:23;6.83;;;3.97;;
20383;SDS011;46458;50.966;7.002;2023-04-24T13:00:52;8.23;;;3.80;;
20383;SDS011;46458;50.966;7.002;2023-04-24T13:03:21;9.57;;;5.77;;
20383;SDS011;46458;50.966;7.002;2023-04-24T13:05:51;10.47;;;4.00;;
20383;SDS011;46458;50.966;7.002;2023-04-24T13:08:20;8.97;;;3.70;;
20383;SDS011;46458;50.966;7.002;2023-04-24T13:10:49;7.40;;;3.83;;
20383;SDS011;46458;50.966;7.002;2023-04-24T13:13:19;8.63;;;3.83;;
20383;SDS011;46458;50.966;7.002;2023-04-24T13:15:50;8.93;;;4.20;;
20383;SDS011;46458;50.966;7.002;2023-04-24T13:18:19;8.47;;;3.90;;
20383;SDS011;46458;50.966;7.002;2023-04-24T13:20:48;9.83;;;4.30;;
20383;SDS011;46458;50.966;7.002;2023-04-24T13:23:17;8.03;;;4.20;;
20383;SDS011;46458;50.966;7.002;2023-04-24T13:25:45;8.43;;;4.27;;
20383;SDS011;46458;50.966;7.002;2023-04-24T13:28:14;6.17;;;4.50;;
20383;SDS011;46458;50.966;7.002;2023-04-24T13:30:43;7.80;;;3.97;;
20383;SDS011;46458;50.966;7.002;2023-04-24T13:33:16;8.43;;;3.70;;
20383;SDS011;46458;50.966;7.002;2023-04-24T13:35:45;8.37;;;3.80;;
20383;SDS011;46458;50.966;7.002;2023-04-24T13:38:14;6.33;;;3.80;;
20383;SDS011;46458;50.966;7.002;2023-04-24T13:40:43;5.30;;;3.63;;
20383;SDS011;46458;50.966;7.002;2023-04-24T13:43:12;7.10;;;4.20;;
20383;SDS011;46458;50.966;7.002;2023-04-24T13:45:41;9.93;;;4.13;;
20383;SDS011;46458;50.966;7.002;2023-04-24T13:48:10;7.47;;;3.33;;
20383;SDS011;46458;50.966;7.002;2023-04-24T13:50:43;6.17;;;3.27;;
20383;SDS011;46458;50.966;7.002;2023-04-24T13:53:13;6.40;;;3.43;;
20383;SDS011;46458;50.966;7.002;2023-04-24T13:55:42;6.80;;;3.83;;
20383;SDS011;46458;50.966;7.002;2023-04-24T13:58:11;5.87;;;3.63;;
20383;SDS011;46458;50.966;7.002;2023-04-24T14:00:42;6.47;;;3.60;;
20383;SDS011;46458;50.966;7.002;2023-04-24T14:03:11;6.10;;;4.17;;
20383;SDS011;46458;50.966;7.002;2023-04-24T14:05:43;9.03;;;3.73;;
20383;SDS011;46458;50.966;7.002;2023-04-24T14:08:13;5.67;;;3.37;;
20383;SDS011;46458;50.966;7.002;2023-04-24T14:10:45;6.83;;;3.10;;
20383;SDS011;46458;50.966;7.002;2023-04-24T14:13:14;5.37;;;2.80;;
20383;SDS011;46458;50.966;7.002;2023-04-24T14:15:43;4.77;;;3.27;;
20383;SDS011;46458;50.966;7.002;2023-04-24T14:18:12;5.63;;;2.87;;
20383;SDS011;46458;50.966;7.002;2023-04-24T14:20:44;4.77;;;2.60;;
20383;SDS011;46458;50.966;7.002;2023-04-24T14:23:13;8.77;;;3.57;;
20383;SDS011;46458;50.966;7.002;2023-04-24T14:25:42;7.20;;;3.10;;
20383;SDS011;46458;50.966;7.002;2023-04-24T14:28:11;10.00;;;4.03;;
20383;SDS011;46458;50.966;7.002;2023-04-24T14:30:40;7.30;;;3.60;;
20383;SDS011;46458;50.966;7.002;2023-04-24T14:33:09;5.60;;;3.33;;
20383;SDS011;46458;50.966;7.002;2023-04-24T14:35:38;5.27;;;3.40;;
20383;SDS011;46458;50.966;7.002;2023-04-24T14:38:12;5.03;;;3.07;;
20383;SDS011;46458;50.966;7.002;2023-04-24T14:40:41;5.47;;;3.30;;
20383;SDS011;46458;50.966;7.002;2023-04-24T14:43:10;7.87;;;3.40;;
20383;SDS011;46458;50.966;7.002;2023-04-24T14:45:40;6.13;;;3.30;;
20383;SDS011;46458;50.966;7.002;2023-04-24T14:48:09;6.83;;;3.40;;
20383;SDS011;46458;50.966;7.002;2023-04-24T14:50:38;6.73;;;3.50;;
20383;SDS011;46458;50.966;7.002;2023-04-24T14:53:09;5.83;;;3.57;;
20383;SDS011;46458;50.966;7.002;2023-04-24T14:55:39;7.23;;;3.40;;
20383;SDS011;46458;50.966;7.002;2023-04-24T14:58:13;5.27;;;3.40;;
20383;SDS011;46458;50.966;7.002;2023-04-24T15:00:42;4.80;;;2.93;;
20383;SDS011;46458;50.966;7.002;2023-04-24T15:03:11;9.73;;;3.93;;
20383;SDS011;46458;50.966;7.002;2023-04-24T15:05:40;4.30;;;2.93;;
20383;SDS011;46458;50.966;7.002;2023-04-24T15:08:11;6.97;;;3.27;;
20383;SDS011;46458;50.966;7.002;2023-04-24T15:10:40;6.53;;;3.17;;
20383;SDS011;46458;50.966;7.002;2023-04-24T15:13:09;5.40;;;3.10;;
20383;SDS011;46458;50.966;7.002;2023-04-24T15:15:38;4.60;;;2.90;;